sensor_id;sensor_type;location;lat;lon;timestamp;pressure;altitude;pressure_sealevel;temperature;humidity
7614;BME280;3848;42.016;23.098;2023-07-29T00:01:15;96940.91;;;20.73;78.69
7614;BME280;3848;42.016;23.098;2023-07-29T00:03:41;96935.97;;;20.68;79.65
7614;BME280;3848;42.016;23.098;2023-07-29T00:06:09;96941.38;;;20.64;81.12
7614;BME280;3848;42.016;23.098;2023-07-29T00:08:37;96912.94;;;20.48;80.90
7614;BME280;3848;42.016;23.098;2023-07-29T00:11:04;96937.16;;;20.63;80.92
7614;BME280;3848;42.016;23.098;2023-07-29T00:13:31;96938.28;;;20.57;81.99
7614;BME280;3848;42.016;23.098;2023-07-29T00:15:58;96926.69;;;20.49;82.76
7614;BME280;3848;42.016;23.098;2023-07-29T00:18:24;96933.09;;;20.40;83.01
7614;BME280;3848;42.016;23.098;2023-07-29T00:20:52;96934.00;;;20.39;83.56
7614;BME280;3848;42.016;23.098;2023-07-29T00:23:19;96888.88;;;20.13;85.38
7614;BME280;3848;42.016;23.098;2023-07-29T00:25:48;96936.75;;;20.36;85.45
7614;BME280;3848;42.016;23.098;2023-07-29T00:28:15;96926.50;;;20.34;85.30
7614;BME280;3848;42.016;23.098;2023-07-29T00:30:42;96921.66;;;20.28;86.09
7614;BME280;3848;42.016;23.098;2023-07-29T00:33:08;96928.16;;;20.35;85.56
7614;BME280;3848;42.016;23.098;2023-07-29T00:35:35;96930.00;;;20.33;86.44
7614;BME280;3848;42.016;23.098;2023-07-29T00:38:02;96932.13;;;20.25;88.32
7614;BME280;3848;42.016;23.098;2023-07-29T00:40:29;96925.06;;;20.12;90.34
7614;BME280;3848;42.016;23.098;2023-07-29T00:42:57;96922.31;;;19.97;92.84
7614;BME280;3848;42.016;23.098;2023-07-29T00:45:25;96927.19;;;19.86;94.21
7614;BME280;3848;42.016;23.098;2023-07-29T00:47:53;96924.75;;;19.83;95.34
7614;BME280;3848;42.016;23.098;2023-07-29T00:50:20;96924.06;;;19.79;97.02
7614;BME280;3848;42.016;23.098;2023-07-29T00:52:48;96927.56;;;19.78;95.69
7614;BME280;3848;42.016;23.098;2023-07-29T00:55:14;96926.09;;;19.73;98.85
7614;BME280;3848;42.016;23.098;2023-07-29T00:57:41;96925.41;;;19.69;96.72
7614;BME280;3848;42.016;23.098;2023-07-29T01:00:15;96923.97;;;19.64;96.49
7614;BME280;3848;42.016;23.098;2023-07-29T01:02:42;96913.09;;;19.57;97.27
7614;BME280;3848;42.016;23.098;2023-07-29T01:05:11;96892.81;;;19.49;98.32
7614;BME280;3848;42.016;23.098;2023-07-29T01:07:44;96917.13;;;19.63;98.31
7614;BME280;3848;42.016;23.098;2023-07-29T01:10:20;96915.53;;;19.60;100.00
7614;BME280;3848;42.016;23.098;2023-07-29T01:12:54;96918.44;;;19.53;100.00
7614;BME280;3848;42.016;23.098;2023-07-29T01:15:29;96911.16;;;19.43;100.00
7614;BME280;3848;42.016;23.098;2023-07-29T01:18:03;96914.63;;;19.42;99.69
7614;BME280;3848;42.016;23.098;2023-07-29T01:20:33;96919.78;;;19.42;99.98
7614;BME280;3848;42.016;23.098;2023-07-29T01:23:00;96923.34;;;19.40;100.00
7614;BME280;3848;42.016;23.098;2023-07-29T01:25:28;96912.97;;;19.41;100.00
7614;BME280;3848;42.016;23.098;2023-07-29T01:27:55;96916.72;;;19.34;100.00
7614;BME280;3848;42.016;23.098;2023-07-29T01:30:28;96782.31;;;18.32;100.00
7614;BME280;3848;42.016;23.098;2023-07-29T01:33:02;96918.34;;;19.18;100.00
7614;BME280;3848;42.016;23.098;2023-07-29T01:35:33;96909.13;;;19.12;100.00
7614;BME280;3848;42.016;23.098;2023-07-29T01:38:10;96914.34;;;19.11;100.00
7614;BME280;3848;42.016;23.098;2023-07-29T01:40:41;96920.28;;;19.13;100.00
7614;BME280;3848;42.016;23.098;2023-07-29T01:43:09;96924.66;;;19.11;100.00
7614;BME280;3848;42.016;23.098;2023-07-29T01:45:37;96927.44;;;19.06;100.00
7614;BME280;3848;42.016;23.098;2023-07-29T01:48:04;96928.50;;;19.02;100.00
7614;BME280;3848;42.016;23.098;2023-07-29T01:50:31;96935.53;;;18.99;100.00
7614;BME280;3848;42.016;23.098;2023-07-29T01:52:58;96936.53;;;18.95;100.00
7614;BME280;3848;42.016;23.098;2023-07-29T01:55:25;96904.03;;;18.53;100.00
7614;BME280;3848;42.016;23.098;2023-07-29T01:57:53;96932.88;;;18.61;100.00
7614;BME280;3848;42.016;23.098;2023-07-29T02:00:21;96928.31;;;18.27;100.00
7614;BME280;3848;42.016;23.098;2023-07-29T02:02:48;96920.66;;;18.25;100.00
7614;BME280;3848;42.016;23.098;2023-07-29T02:05:15;96943.16;;;18.41;100.00
7614;BME280;3848;42.016;23.098;2023-07-29T02:07:41;96955.13;;;18.42;100.00
7614;BME280;3848;42.016;23.098;2023-07-29T02:10:08;96952.69;;;18.39;100.00
7614;BME280;3848;42.016;23.098;2023-07-29T02:12:35;96911.00;;;18.10;100.00
7614;BME280;3848;42.016;23.098;2023-07-29T02:15:04;96946.25;;;18.28;100.00
7614;BME280;3848;42.016;23.098;2023-07-29T02:17:31;96942.41;;;18.18;100.00
7614;BME280;3848;42.016;23.098;2023-07-29T02:19:58;96946.63;;;18.19;100.00
7614;BME280;3848;42.016;23.098;2023-07-29T02:22:24;96948.25;;;18.22;100.00
7614;BME280;3848;42.016;23.098;2023-07-29T02:24:51;96936.28;;;18.21;100.00
7614;BME280;3848;42.016;23.098;2023-07-29T02:27:18;96944.63;;;18.26;100.00
7614;BME280;3848;42.016;23.098;2023-07-29T02:29:45;96942.66;;;18.33;100.00
7614;BME280;3848;42.016;23.098;2023-07-29T02:32:13;96939.97;;;18.36;100.00
7614;BME280;3848;42.016;23.098;2023-07-29T02:34:40;96939.91;;;18.37;100.00
7614;BME280;3848;42.016;23.098;2023-07-29T02:37:06;96922.25;;;18.28;100.00
7614;BME280;3848;42.016;23.098;2023-07-29T02:39:33;96943.16;;;18.41;100.00
7614;BME280;3848;42.016;23.098;2023-07-29T02:42:00;96938.03;;;18.41;100.00
7614;BME280;3848;42.016;23.098;2023-07-29T02:44:27;96936.50;;;18.37;100.00
7614;BME280;3848;42.016;23.098;2023-07-29T02:46:53;96941.22;;;18.46;100.00
7614;BME280;3848;42.016;23.098;2023-07-29T02:49:22;96937.97;;;18.42;100.00
7614;BME280;3848;42.016;23.098;2023-07-29T02:51:49;96944.72;;;18.45;100.00
7614;BME280;3848;42.016;23.098;2023-07-29T02:54:16;96944.44;;;18.51;100.00
7614;BME280;3848;42.016;23.098;2023-07-29T02:56:43;96882.06;;;18.05;100.00
7614;BME280;3848;42.016;23.098;2023-07-29T02:59:09;96946.66;;;18.40;100.00
7614;BME280;3848;42.016;23.098;2023-07-29T03:01:36;96938.53;;;18.28;100.00
7614;BME280;3848;42.016;23.098;2023-07-29T03:04:03;96950.75;;;18.23;100.00
7614;BME280;3848;42.016;23.098;2023-07-29T03:06:31;96952.69;;;18.18;100.00
7614;BME280;3848;42.016;23.098;2023-07-29T03:08:58;96936.97;;;18.04;100.00
7614;BME280;3848;42.016;23.098;2023-07-29T03:11:25;96951.06;;;17.95;100.00
7614;BME280;3848;42.016;23.098;2023-07-29T03:13:52;96951.47;;;17.85;100.00
7614;BME280;3848;42.016;23.098;2023-07-29T03:16:18;96951.72;;;17.79;100.00
7614;BME280;3848;42.016;23.098;2023-07-29T03:18:48;96956.88;;;17.79;100.00
7614;BME280;3848;42.016;23.098;2023-07-29T03:21:15;96957.81;;;17.76;100.00
7614;BME280;3848;42.016;23.098;2023-07-29T03:23:43;96946.84;;;17.73;100.00
7614;BME280;3848;42.016;23.098;2023-07-29T03:26:09;96951.78;;;17.77;100.00
7614;BME280;3848;42.016;23.098;2023-07-29T03:28:38;96943.31;;;17.75;100.00
7614;BME280;3848;42.016;23.098;2023-07-29T03:31:04;96940.22;;;17.65;100.00
7614;BME280;3848;42.016;23.098;2023-07-29T03:33:31;96962.91;;;17.78;100.00
7614;BME280;3848;42.016;23.098;2023-07-29T03:35:58;96963.47;;;17.84;100.00
7614;BME280;3848;42.016;23.098;2023-07-29T03:38:25;96954.22;;;17.80;100.00
7614;BME280;3848;42.016;23.098;2023-07-29T03:40:54;96966.06;;;17.84;100.00
7614;BME280;3848;42.016;23.098;2023-07-29T03:43:21;96952.63;;;17.78;100.00
7614;BME280;3848;42.016;23.098;2023-07-29T03:45:47;96963.41;;;17.86;100.00
7614;BME280;3848;42.016;23.098;2023-07-29T03:48:14;96965.81;;;17.90;100.00
7614;BME280;3848;42.016;23.098;2023-07-29T03:50:41;96968.34;;;17.92;100.00
7614;BME280;3848;42.016;23.098;2023-07-29T03:53:08;96970.09;;;17.90;100.00
7614;BME280;3848;42.016;23.098;2023-07-29T03:55:35;96971.00;;;17.89;100.00
7614;BME280;3848;42.016;23.098;2023-07-29T03:58:03;96977.78;;;17.91;100.00
7614;BME280;3848;42.016;23.098;2023-07-29T04:00:30;96978.50;;;17.95;100.00
7614;BME280;3848;42.016;23.098;2023-07-29T04:02:57;96972.47;;;17.96;100.00
7614;BME280;3848;42.016;23.098;2023-07-29T04:05:24;96974.72;;;18.04;100.00
7614;BME280;3848;42.016;23.098;2023-07-29T04:07:50;96976.97;;;18.11;100.00
7614;BME280;3848;42.016;23.098;2023-07-29T04:10:18;96977.94;;;18.09;100.00
7614;BME280;3848;42.016;23.098;2023-07-29T04:12:45;96984.69;;;18.11;100.00
7614;BME280;3848;42.016;23.098;2023-07-29T04:15:13;96992.38;;;18.11;100.00
7614;BME280;3848;42.016;23.098;2023-07-29T04:17:40;96990.72;;;18.10;100.00
7614;BME280;3848;42.016;23.098;2023-07-29T04:20:07;96985.53;;;18.12;100.00
7614;BME280;3848;42.016;23.098;2023-07-29T04:22:34;96982.78;;;18.16;100.00
7614;BME280;3848;42.016;23.098;2023-07-29T04:25:01;96983.56;;;18.18;100.00
7614;BME280;3848;42.016;23.098;2023-07-29T04:27:30;96986.06;;;18.20;100.00
7614;BME280;3848;42.016;23.098;2023-07-29T04:29:56;96992.69;;;18.25;100.00
7614;BME280;3848;42.016;23.098;2023-07-29T04:32:24;96979.19;;;18.20;100.00
7614;BME280;3848;42.016;23.098;2023-07-29T04:34:52;96996.69;;;18.33;100.00
7614;BME280;3848;42.016;23.098;2023-07-29T04:37:19;96991.78;;;18.26;100.00
7614;BME280;3848;42.016;23.098;2023-07-29T04:39:46;96984.97;;;18.25;100.00
7614;BME280;3848;42.016;23.098;2023-07-29T04:42:13;96998.47;;;18.31;100.00
7614;BME280;3848;42.016;23.098;2023-07-29T04:44:39;97000.31;;;18.27;100.00
7614;BME280;3848;42.016;23.098;2023-07-29T04:47:07;97005.53;;;18.25;100.00
7614;BME280;3848;42.016;23.098;2023-07-29T04:49:35;97005.94;;;18.16;100.00
7614;BME280;3848;42.016;23.098;2023-07-29T04:52:02;96995.28;;;18.04;100.00
7614;BME280;3848;42.016;23.098;2023-07-29T04:54:29;97004.84;;;18.00;100.00
7614;BME280;3848;42.016;23.098;2023-07-29T04:56:56;97006.84;;;17.93;100.00
7614;BME280;3848;42.016;23.098;2023-07-29T04:59:22;97001.56;;;17.96;100.00
7614;BME280;3848;42.016;23.098;2023-07-29T05:01:49;97007.09;;;18.08;100.00
7614;BME280;3848;42.016;23.098;2023-07-29T05:04:16;97000.91;;;18.13;100.00
7614;BME280;3848;42.016;23.098;2023-07-29T05:06:44;97004.72;;;18.03;100.00
7614;BME280;3848;42.016;23.098;2023-07-29T05:09:14;97005.94;;;17.94;100.00
7614;BME280;3848;42.016;23.098;2023-07-29T05:11:42;97004.44;;;17.89;100.00
7614;BME280;3848;42.016;23.098;2023-07-29T05:14:10;97005.75;;;17.99;100.00
7614;BME280;3848;42.016;23.098;2023-07-29T05:16:37;97012.25;;;18.08;100.00
7614;BME280;3848;42.016;23.098;2023-07-29T05:19:04;97014.59;;;18.14;100.00
7614;BME280;3848;42.016;23.098;2023-07-29T05:21:31;97008.38;;;18.19;100.00
7614;BME280;3848;42.016;23.098;2023-07-29T05:23:59;97009.66;;;18.29;100.00
7614;BME280;3848;42.016;23.098;2023-07-29T05:26:26;97016.88;;;18.42;100.00
7614;BME280;3848;42.016;23.098;2023-07-29T05:28:53;97018.16;;;18.52;100.00
7614;BME280;3848;42.016;23.098;2023-07-29T05:31:19;97016.50;;;18.51;100.00
7614;BME280;3848;42.016;23.098;2023-07-29T05:33:46;97019.59;;;18.59;100.00
7614;BME280;3848;42.016;23.098;2023-07-29T05:36:13;97016.34;;;18.76;100.00
7614;BME280;3848;42.016;23.098;2023-07-29T05:38:40;97018.19;;;18.93;100.00
7614;BME280;3848;42.016;23.098;2023-07-29T05:41:09;97008.28;;;19.04;100.00
7614;BME280;3848;42.016;23.098;2023-07-29T05:43:36;97010.56;;;19.10;100.00
7614;BME280;3848;42.016;23.098;2023-07-29T05:46:03;97013.38;;;19.24;100.00
7614;BME280;3848;42.016;23.098;2023-07-29T05:48:30;97014.63;;;19.34;100.00
7614;BME280;3848;42.016;23.098;2023-07-29T05:50:57;97011.66;;;19.43;100.00
7614;BME280;3848;42.016;23.098;2023-07-29T05:53:24;97014.88;;;19.67;100.00
7614;BME280;3848;42.016;23.098;2023-07-29T05:55:50;97015.22;;;19.78;100.00
7614;BME280;3848;42.016;23.098;2023-07-29T05:58:19;97019.72;;;19.92;100.00
7614;BME280;3848;42.016;23.098;2023-07-29T06:00:46;97004.75;;;20.00;100.00
7614;BME280;3848;42.016;23.098;2023-07-29T06:03:13;97014.44;;;20.13;100.00
7614;BME280;3848;42.016;23.098;2023-07-29T06:05:39;96998.38;;;20.07;100.00
7614;BME280;3848;42.016;23.098;2023-07-29T06:08:06;97018.03;;;20.27;100.00
7614;BME280;3848;42.016;23.098;2023-07-29T06:10:34;97016.59;;;20.39;100.00
7614;BME280;3848;42.016;23.098;2023-07-29T06:13:00;97020.88;;;20.57;99.96
7614;BME280;3848;42.016;23.098;2023-07-29T06:15:29;96975.72;;;20.49;95.79
7614;BME280;3848;42.016;23.098;2023-07-29T06:17:55;97017.69;;;20.87;94.07
7614;BME280;3848;42.016;23.098;2023-07-29T06:20:22;97008.25;;;21.03;92.51
7614;BME280;3848;42.016;23.098;2023-07-29T06:22:49;97003.25;;;21.16;91.52
7614;BME280;3848;42.016;23.098;2023-07-29T06:25:16;96994.16;;;21.26;87.19
7614;BME280;3848;42.016;23.098;2023-07-29T06:27:42;96998.00;;;21.35;85.70
7614;BME280;3848;42.016;23.098;2023-07-29T06:30:10;96991.19;;;21.49;83.91
7614;BME280;3848;42.016;23.098;2023-07-29T06:32:38;96989.25;;;21.53;80.28
7614;BME280;3848;42.016;23.098;2023-07-29T06:35:05;96993.16;;;21.60;81.96
7614;BME280;3848;42.016;23.098;2023-07-29T06:37:32;96989.34;;;21.67;80.48
7614;BME280;3848;42.016;23.098;2023-07-29T06:39:59;96991.25;;;21.79;77.74
7614;BME280;3848;42.016;23.098;2023-07-29T06:42:26;96985.56;;;21.88;78.96
7614;BME280;3848;42.016;23.098;2023-07-29T06:44:53;96976.88;;;21.89;78.89
7614;BME280;3848;42.016;23.098;2023-07-29T06:47:20;96976.19;;;22.02;78.02
7614;BME280;3848;42.016;23.098;2023-07-29T06:49:48;96980.28;;;22.21;76.79
7614;BME280;3848;42.016;23.098;2023-07-29T06:52:15;96977.25;;;22.29;74.83
7614;BME280;3848;42.016;23.098;2023-07-29T06:54:41;96958.66;;;22.07;74.05
7614;BME280;3848;42.016;23.098;2023-07-29T06:57:08;96969.72;;;22.25;75.09
7614;BME280;3848;42.016;23.098;2023-07-29T06:59:35;96960.72;;;22.32;76.44
7614;BME280;3848;42.016;23.098;2023-07-29T07:02:02;96960.81;;;22.44;73.83
7614;BME280;3848;42.016;23.098;2023-07-29T07:04:29;96956.41;;;22.61;71.79
7614;BME280;3848;42.016;23.098;2023-07-29T07:06:57;96949.50;;;22.75;71.38
7614;BME280;3848;42.016;23.098;2023-07-29T07:09:24;96949.44;;;22.91;71.43
7614;BME280;3848;42.016;23.098;2023-07-29T07:11:50;96946.84;;;23.05;70.58
7614;BME280;3848;42.016;23.098;2023-07-29T07:14:18;96946.63;;;23.23;69.24
7614;BME280;3848;42.016;23.098;2023-07-29T07:16:45;96952.53;;;23.39;66.93
7614;BME280;3848;42.016;23.098;2023-07-29T07:19:11;96939.63;;;23.52;65.53
7614;BME280;3848;42.016;23.098;2023-07-29T07:21:38;96924.34;;;23.47;63.54
7614;BME280;3848;42.016;23.098;2023-07-29T07:24:07;96932.59;;;23.54;64.10
7614;BME280;3848;42.016;23.098;2023-07-29T07:26:34;96927.19;;;23.71;63.55
7614;BME280;3848;42.016;23.098;2023-07-29T07:29:01;96923.81;;;23.83;62.25
7614;BME280;3848;42.016;23.098;2023-07-29T07:31:28;96880.69;;;23.68;62.17
7614;BME280;3848;42.016;23.098;2023-07-29T07:33:54;96902.69;;;24.02;61.32
7614;BME280;3848;42.016;23.098;2023-07-29T07:36:21;96911.13;;;24.18;61.21
7614;BME280;3848;42.016;23.098;2023-07-29T07:38:48;96914.94;;;24.40;63.10
7614;BME280;3848;42.016;23.098;2023-07-29T07:41:16;96913.47;;;24.61;61.55
7614;BME280;3848;42.016;23.098;2023-07-29T07:43:43;96914.06;;;24.77;59.78
7614;BME280;3848;42.016;23.098;2023-07-29T07:46:10;96902.34;;;24.84;58.82
7614;BME280;3848;42.016;23.098;2023-07-29T07:48:38;96914.94;;;25.03;57.96
7614;BME280;3848;42.016;23.098;2023-07-29T07:51:11;96899.00;;;25.08;56.89
7614;BME280;3848;42.016;23.098;2023-07-29T07:53:38;96915.97;;;25.37;56.52
7614;BME280;3848;42.016;23.098;2023-07-29T07:56:05;96914.50;;;25.46;56.28
7614;BME280;3848;42.016;23.098;2023-07-29T07:58:34;96855.59;;;25.21;56.17
7614;BME280;3848;42.016;23.098;2023-07-29T08:01:02;96916.81;;;25.74;56.49
7614;BME280;3848;42.016;23.098;2023-07-29T08:03:29;96894.53;;;25.94;56.66
7614;BME280;3848;42.016;23.098;2023-07-29T08:05:56;96900.53;;;26.19;53.92
7614;BME280;3848;42.016;23.098;2023-07-29T08:08:23;96901.91;;;26.35;55.11
7614;BME280;3848;42.016;23.098;2023-07-29T08:10:49;96892.09;;;26.50;52.24
7614;BME280;3848;42.016;23.098;2023-07-29T08:13:16;96899.59;;;26.66;51.25
7614;BME280;3848;42.016;23.098;2023-07-29T08:15:47;96890.94;;;26.77;51.36
7614;BME280;3848;42.016;23.098;2023-07-29T08:18:14;96896.88;;;26.90;50.78
7614;BME280;3848;42.016;23.098;2023-07-29T08:20:41;96892.50;;;27.13;51.93
7614;BME280;3848;42.016;23.098;2023-07-29T08:23:07;96899.41;;;27.46;51.29
7614;BME280;3848;42.016;23.098;2023-07-29T08:25:34;96900.69;;;27.74;48.99
7614;BME280;3848;42.016;23.098;2023-07-29T08:28:01;96897.78;;;27.88;48.16
7614;BME280;3848;42.016;23.098;2023-07-29T08:30:28;96895.50;;;27.94;48.53
7614;BME280;3848;42.016;23.098;2023-07-29T08:32:56;96891.69;;;28.19;48.42
7614;BME280;3848;42.016;23.098;2023-07-29T08:35:23;96883.22;;;28.48;46.64
7614;BME280;3848;42.016;23.098;2023-07-29T08:37:50;96896.72;;;28.74;45.96
7614;BME280;3848;42.016;23.098;2023-07-29T08:40:17;96882.13;;;29.02;46.59
7614;BME280;3848;42.016;23.098;2023-07-29T08:42:45;96872.28;;;29.34;45.93
7614;BME280;3848;42.016;23.098;2023-07-29T08:45:14;96879.38;;;29.72;43.07
7614;BME280;3848;42.016;23.098;2023-07-29T08:47:42;96881.22;;;29.82;43.01
7614;BME280;3848;42.016;23.098;2023-07-29T08:50:11;96875.28;;;29.99;41.19
7614;BME280;3848;42.016;23.098;2023-07-29T08:52:38;96861.75;;;30.13;43.70
7614;BME280;3848;42.016;23.098;2023-07-29T08:55:06;96869.00;;;30.48;43.30
7614;BME280;3848;42.016;23.098;2023-07-29T08:57:33;96860.34;;;30.85;41.41
7614;BME280;3848;42.016;23.098;2023-07-29T09:00:01;96854.03;;;31.05;40.73
7614;BME280;3848;42.016;23.098;2023-07-29T09:02:28;96854.34;;;31.30;41.18
7614;BME280;3848;42.016;23.098;2023-07-29T09:04:55;96842.94;;;31.57;39.75
7614;BME280;3848;42.016;23.098;2023-07-29T09:07:24;96831.91;;;31.71;39.18
7614;BME280;3848;42.016;23.098;2023-07-29T09:09:51;96830.44;;;31.86;39.07
7614;BME280;3848;42.016;23.098;2023-07-29T09:12:18;96832.78;;;31.97;38.79
7614;BME280;3848;42.016;23.098;2023-07-29T09:14:45;96834.31;;;32.26;38.34
7614;BME280;3848;42.016;23.098;2023-07-29T09:17:12;96824.34;;;32.55;39.00
7614;BME280;3848;42.016;23.098;2023-07-29T09:19:39;96816.91;;;32.85;37.60
7614;BME280;3848;42.016;23.098;2023-07-29T09:22:17;96825.53;;;33.03;37.11
7614;BME280;3848;42.016;23.098;2023-07-29T09:24:45;96814.41;;;33.17;37.42
7614;BME280;3848;42.016;23.098;2023-07-29T09:27:23;96805.34;;;33.28;37.33
7614;BME280;3848;42.016;23.098;2023-07-29T09:29:50;96809.19;;;33.50;36.44
7614;BME280;3848;42.016;23.098;2023-07-29T09:32:20;96801.31;;;33.66;35.93
7614;BME280;3848;42.016;23.098;2023-07-29T09:34:47;96797.69;;;33.83;35.72
7614;BME280;3848;42.016;23.098;2023-07-29T09:37:17;96791.94;;;34.04;35.13
7614;BME280;3848;42.016;23.098;2023-07-29T09:39:47;96726.00;;;33.80;35.15
7614;BME280;3848;42.016;23.098;2023-07-29T09:42:17;96780.50;;;34.44;33.83
7614;BME280;3848;42.016;23.098;2023-07-29T09:44:45;96781.56;;;34.66;33.94
7614;BME280;3848;42.016;23.098;2023-07-29T09:47:19;96781.09;;;35.02;34.97
7614;BME280;3848;42.016;23.098;2023-07-29T09:49:46;96781.88;;;35.41;33.59
7614;BME280;3848;42.016;23.098;2023-07-29T09:52:15;96773.31;;;35.77;31.66
7614;BME280;3848;42.016;23.098;2023-07-29T09:54:42;96770.13;;;36.04;31.08
7614;BME280;3848;42.016;23.098;2023-07-29T09:57:12;96760.81;;;36.23;31.89
7614;BME280;3848;42.016;23.098;2023-07-29T09:59:40;96753.16;;;36.58;31.85
7614;BME280;3848;42.016;23.098;2023-07-29T10:02:14;96747.13;;;36.79;30.33
7614;BME280;3848;42.016;23.098;2023-07-29T10:04:42;96749.06;;;36.55;29.75
7614;BME280;3848;42.016;23.098;2023-07-29T10:07:09;96743.56;;;36.57;30.43
7614;BME280;3848;42.016;23.098;2023-07-29T10:09:37;96738.53;;;36.77;30.09
7614;BME280;3848;42.016;23.098;2023-07-29T10:12:06;96736.94;;;36.97;30.84
7614;BME280;3848;42.016;23.098;2023-07-29T10:14:35;96740.66;;;37.03;30.02
7614;BME280;3848;42.016;23.098;2023-07-29T10:17:04;96744.72;;;37.20;30.83
7614;BME280;3848;42.016;23.098;2023-07-29T10:19:31;96722.09;;;37.39;30.25
7614;BME280;3848;42.016;23.098;2023-07-29T10:21:59;96728.72;;;37.49;29.61
7614;BME280;3848;42.016;23.098;2023-07-29T10:24:30;96731.19;;;37.72;29.81
7614;BME280;3848;42.016;23.098;2023-07-29T10:26:58;96723.19;;;37.94;29.37
7614;BME280;3848;42.016;23.098;2023-07-29T10:29:30;96723.66;;;38.10;29.81
7614;BME280;3848;42.016;23.098;2023-07-29T10:32:01;96710.06;;;38.55;29.45
7614;BME280;3848;42.016;23.098;2023-07-29T10:34:29;96713.25;;;38.91;28.49
7614;BME280;3848;42.016;23.098;2023-07-29T10:36:57;96706.28;;;38.90;27.30
7614;BME280;3848;42.016;23.098;2023-07-29T10:39:24;96709.44;;;39.07;27.40
7614;BME280;3848;42.016;23.098;2023-07-29T10:41:55;96712.25;;;39.06;26.83
7614;BME280;3848;42.016;23.098;2023-07-29T10:44:46;96700.47;;;39.41;27.03
7614;BME280;3848;42.016;23.098;2023-07-29T10:47:16;96695.78;;;39.37;26.23
7614;BME280;3848;42.016;23.098;2023-07-29T10:49:44;96690.66;;;39.42;26.65
7614;BME280;3848;42.016;23.098;2023-07-29T10:52:13;96690.66;;;39.68;27.42
7614;BME280;3848;42.016;23.098;2023-07-29T10:54:44;96687.97;;;39.88;26.50
7614;BME280;3848;42.016;23.098;2023-07-29T10:57:14;96690.19;;;40.17;25.06
7614;BME280;3848;42.016;23.098;2023-07-29T10:59:41;96685.31;;;40.08;25.14
7614;BME280;3848;42.016;23.098;2023-07-29T11:02:20;96673.19;;;40.12;24.44
7614;BME280;3848;42.016;23.098;2023-07-29T11:04:48;96681.44;;;40.04;24.87
7614;BME280;3848;42.016;23.098;2023-07-29T11:07:26;96670.34;;;40.07;24.72
7614;BME280;3848;42.016;23.098;2023-07-29T11:09:58;96671.28;;;40.39;24.48
7614;BME280;3848;42.016;23.098;2023-07-29T11:12:50;96666.72;;;40.52;24.80
7614;BME280;3848;42.016;23.098;2023-07-29T11:15:19;96665.00;;;40.71;25.33
7614;BME280;3848;42.016;23.098;2023-07-29T11:17:50;96661.41;;;40.91;25.27
7614;BME280;3848;42.016;23.098;2023-07-29T11:20:18;96633.63;;;41.05;25.46
7614;BME280;3848;42.016;23.098;2023-07-29T11:22:46;96655.09;;;41.41;23.37
7614;BME280;3848;42.016;23.098;2023-07-29T11:25:14;96639.31;;;41.40;23.10
7614;BME280;3848;42.016;23.098;2023-07-29T11:27:41;96646.47;;;41.46;22.71
7614;BME280;3848;42.016;23.098;2023-07-29T11:30:09;96643.44;;;41.61;23.43
7614;BME280;3848;42.016;23.098;2023-07-29T11:32:37;96637.47;;;41.84;23.30
7614;BME280;3848;42.016;23.098;2023-07-29T11:35:07;96631.78;;;41.98;23.13
7614;BME280;3848;42.016;23.098;2023-07-29T11:37:36;96629.78;;;42.30;22.59
7614;BME280;3848;42.016;23.098;2023-07-29T11:40:04;96622.38;;;42.33;22.56
7614;BME280;3848;42.016;23.098;2023-07-29T11:42:32;96628.13;;;42.48;22.58
7614;BME280;3848;42.016;23.098;2023-07-29T11:44:59;96622.16;;;42.64;22.20
7614;BME280;3848;42.016;23.098;2023-07-29T11:47:26;96620.59;;;42.86;23.25
7614;BME280;3848;42.016;23.098;2023-07-29T11:49:53;96622.75;;;42.66;22.96
7614;BME280;3848;42.016;23.098;2023-07-29T11:52:22;96621.44;;;42.39;22.87
7614;BME280;3848;42.016;23.098;2023-07-29T11:54:49;96564.38;;;41.66;22.97
7614;BME280;3848;42.016;23.098;2023-07-29T11:57:16;96599.91;;;41.60;23.66
7614;BME280;3848;42.016;23.098;2023-07-29T11:59:44;96613.16;;;41.74;24.36
7614;BME280;3848;42.016;23.098;2023-07-29T12:02:12;96595.19;;;41.99;22.55
7614;BME280;3848;42.016;23.098;2023-07-29T12:04:40;96589.97;;;42.11;22.82
7614;BME280;3848;42.016;23.098;2023-07-29T12:07:08;96597.78;;;42.24;22.67
7614;BME280;3848;42.016;23.098;2023-07-29T12:09:36;96588.44;;;42.33;22.96
7614;BME280;3848;42.016;23.098;2023-07-29T12:12:05;96586.25;;;42.42;23.39
7614;BME280;3848;42.016;23.098;2023-07-29T12:14:32;96591.59;;;42.42;23.07
7614;BME280;3848;42.016;23.098;2023-07-29T12:17:00;96579.31;;;42.22;22.83
7614;BME280;3848;42.016;23.098;2023-07-29T12:19:31;96582.03;;;41.86;23.15
7614;BME280;3848;42.016;23.098;2023-07-29T12:21:58;96577.88;;;41.90;23.58
7614;BME280;3848;42.016;23.098;2023-07-29T12:24:25;96570.22;;;42.12;22.61
7614;BME280;3848;42.016;23.098;2023-07-29T12:26:53;96567.69;;;41.80;23.03
7614;BME280;3848;42.016;23.098;2023-07-29T12:29:20;96574.75;;;41.75;23.12
7614;BME280;3848;42.016;23.098;2023-07-29T12:31:49;96577.50;;;41.86;22.90
7614;BME280;3848;42.016;23.098;2023-07-29T12:34:19;96573.13;;;41.74;22.65
7614;BME280;3848;42.016;23.098;2023-07-29T12:36:47;96550.41;;;41.83;21.95
7614;BME280;3848;42.016;23.098;2023-07-29T12:39:18;96540.50;;;42.20;22.65
7614;BME280;3848;42.016;23.098;2023-07-29T12:41:48;96568.84;;;42.69;23.11
7614;BME280;3848;42.016;23.098;2023-07-29T12:44:17;96571.50;;;42.69;23.06
7614;BME280;3848;42.016;23.098;2023-07-29T12:46:44;96556.38;;;42.33;22.63
7614;BME280;3848;42.016;23.098;2023-07-29T12:49:11;96562.59;;;42.27;23.04
7614;BME280;3848;42.016;23.098;2023-07-29T12:51:38;96559.31;;;41.95;23.14
7614;BME280;3848;42.016;23.098;2023-07-29T12:54:05;96554.44;;;41.74;23.23
7614;BME280;3848;42.016;23.098;2023-07-29T12:56:32;96550.31;;;41.34;23.40
7614;BME280;3848;42.016;23.098;2023-07-29T12:58:59;96557.41;;;41.65;24.29
7614;BME280;3848;42.016;23.098;2023-07-29T13:01:28;96537.00;;;41.89;23.37
7614;BME280;3848;42.016;23.098;2023-07-29T13:03:55;96549.84;;;42.59;23.63
7614;BME280;3848;42.016;23.098;2023-07-29T13:06:22;96554.59;;;43.10;22.64
7614;BME280;3848;42.016;23.098;2023-07-29T13:08:49;96546.00;;;43.43;23.05
7614;BME280;3848;42.016;23.098;2023-07-29T13:11:16;96538.56;;;43.69;22.70